createdAt,value
2018-04-01T00:02:11.881Z,11.37
2018-04-01T00:04:39.655Z,12.20
2018-04-01T00:07:07.459Z,10.70
2018-04-01T00:09:35.259Z,10.47
2018-04-01T00:12:03.073Z,10.40
2018-04-01T00:14:30.898Z,10.10
2018-04-01T00:16:58.764Z,10.43
2018-04-01T00:19:26.528Z,9.70
2018-04-01T00:21:54.337Z,9.13
2018-04-01T00:24:22.156Z,10.07
2018-04-01T00:26:50.022Z,14.17
2018-04-01T00:29:17.882Z,9.13
2018-04-01T00:31:45.716Z,9.80
2018-04-01T00:34:13.495Z,10.17
2018-04-01T00:36:41.275Z,9.10
2018-04-01T00:39:09.084Z,10.30
2018-04-01T00:41:36.862Z,9.97
2018-04-01T00:44:04.698Z,10.33
2018-04-01T00:46:32.537Z,12.50
2018-04-01T00:49:00.405Z,9.77
2018-04-01T00:51:28.173Z,8.57
2018-04-01T00:53:56.003Z,9.90
2018-04-01T00:56:23.801Z,9.77
2018-04-01T00:58:51.693Z,8.20
2018-04-01T01:01:19.538Z,8.90
2018-04-01T01:03:47.348Z,9.00
2018-04-01T01:06:15.158Z,9.00
2018-04-01T01:08:42.984Z,8.90
2018-04-01T01:11:10.901Z,10.07
2018-04-01T01:13:38.666Z,9.07
2018-04-01T01:16:06.630Z,9.27
2018-04-01T01:18:34.383Z,9.03
2018-04-01T01:21:02.183Z,8.50
2018-04-01T01:23:29.992Z,9.70
2018-04-01T01:25:57.791Z,9.20
2018-04-01T01:28:25.563Z,8.93
2018-04-01T01:30:53.368Z,9.00
2018-04-01T01:33:21.173Z,8.70
2018-04-01T01:35:49.062Z,7.20
2018-04-01T01:38:16.837Z,8.90
2018-04-01T01:40:44.631Z,7.17
2018-04-01T01:43:12.451Z,7.70
2018-04-01T01:45:40.259Z,7.57
2018-04-01T01:48:08.044Z,9.10
2018-04-01T01:50:35.842Z,8.30
2018-04-01T01:53:03.704Z,8.60
2018-04-01T01:55:31.488Z,8.47
2018-04-01T01:57:59.308Z,8.53
2018-04-01T02:00:27.069Z,9.03
2018-04-01T02:02:54.873Z,8.17
2018-04-01T02:05:22.663Z,8.40
2018-04-01T02:07:51.529Z,9.37
2018-04-01T02:10:19.407Z,8.70
2018-04-01T02:12:47.219Z,9.10
2018-04-01T02:15:15.003Z,8.30
2018-04-01T02:17:42.807Z,9.10
2018-04-01T02:20:10.586Z,9.67
2018-04-01T02:22:38.416Z,8.10
2018-04-01T02:25:06.270Z,8.53
2018-04-01T02:27:34.068Z,9.10
2018-04-01T02:30:01.846Z,9.70
2018-04-01T02:32:29.641Z,8.00
2018-04-01T02:34:57.432Z,8.20
2018-04-01T02:37:25.238Z,7.17
2018-04-01T02:39:53.000Z,7.03
2018-04-01T02:42:20.763Z,5.70
2018-04-01T02:44:48.554Z,4.20
2018-04-01T02:47:16.328Z,3.70
2018-04-01T02:49:44.138Z,3.50
2018-04-01T02:52:11.908Z,2.77
2018-04-01T02:54:39.712Z,3.03
2018-04-01T02:57:07.511Z,2.63
2018-04-01T02:59:35.379Z,3.13
2018-04-01T03:02:03.156Z,3.33
2018-04-01T03:04:31.008Z,3.97
2018-04-01T03:06:58.779Z,4.17
2018-04-01T03:09:26.567Z,5.00
2018-04-01T03:11:54.410Z,4.03
2018-04-01T03:14:22.207Z,4.87
2018-04-01T03:16:49.978Z,4.10
2018-04-01T03:19:17.780Z,4.47
2018-04-01T03:21:45.552Z,4.27
2018-04-01T03:24:13.320Z,4.97
2018-04-01T03:26:41.120Z,4.70
2018-04-01T03:29:08.906Z,5.47
2018-04-01T03:31:36.704Z,4.87
2018-04-01T03:34:04.479Z,5.10
2018-04-01T03:36:32.294Z,5.50
2018-04-01T03:39:00.080Z,5.20
2018-04-01T03:41:27.890Z,5.50
2018-04-01T03:43:55.752Z,6.40
2018-04-01T03:46:23.578Z,7.27
2018-04-01T03:48:51.376Z,7.40
2018-04-01T03:51:19.177Z,7.27
2018-04-01T03:53:46.962Z,7.57
2018-04-01T03:56:14.756Z,7.00
2018-04-01T03:58:42.548Z,6.10
2018-04-01T04:01:10.343Z,6.87
2018-04-01T04:03:38.112Z,6.33
2018-04-01T04:06:05.904Z,6.83
2018-04-01T04:08:33.670Z,7.23
2018-04-01T04:11:01.455Z,8.30
2018-04-01T04:13:29.255Z,7.70
2018-04-01T04:15:57.027Z,7.63
2018-04-01T04:18:24.827Z,8.83
2018-04-01T04:20:52.611Z,8.20
2018-04-01T04:23:20.484Z,8.00
2018-04-01T04:25:48.249Z,8.23
2018-04-01T04:28:16.034Z,7.73
2018-04-01T04:30:43.868Z,7.90
2018-04-01T04:33:11.739Z,7.60
2018-04-01T04:35:39.602Z,7.30
2018-04-01T04:38:07.395Z,7.00
2018-04-01T04:40:35.239Z,7.10
2018-04-01T04:43:03.052Z,7.33
2018-04-01T04:45:30.822Z,7.20
2018-04-01T04:47:58.590Z,7.40
2018-04-01T04:50:26.514Z,7.67
2018-04-01T04:52:54.370Z,7.30
2018-04-01T04:55:22.575Z,6.23
2018-04-01T04:57:50.419Z,6.50
2018-04-01T05:00:18.271Z,7.67
2018-04-01T05:02:46.039Z,6.50
2018-04-01T05:05:13.916Z,5.87
2018-04-01T05:07:41.694Z,6.50
2018-04-01T05:10:09.530Z,6.37
2018-04-01T05:12:37.296Z,5.90
2018-04-01T05:15:05.113Z,5.90
2018-04-01T05:17:32.921Z,5.57
2018-04-01T05:20:00.712Z,4.50
2018-04-01T05:22:28.489Z,4.80
2018-04-01T05:24:56.264Z,6.60
2018-04-01T05:27:24.054Z,5.67
2018-04-01T05:29:51.814Z,6.20
2018-04-01T05:32:19.710Z,5.80
2018-04-01T05:34:47.478Z,4.03
2018-04-01T05:37:15.301Z,5.70
2018-04-01T05:39:43.115Z,7.03
2018-04-01T05:42:10.915Z,6.90
2018-04-01T05:44:38.753Z,6.40
2018-04-01T05:47:06.663Z,6.13
2018-04-01T05:49:34.482Z,6.80
2018-04-01T05:52:02.480Z,6.63
2018-04-01T05:54:30.242Z,6.67
2018-04-01T05:56:58.042Z,6.50
2018-04-01T05:59:25.808Z,6.67
2018-04-01T06:01:53.617Z,6.40
2018-04-01T06:04:21.395Z,6.37
2018-04-01T06:06:49.276Z,7.70
2018-04-01T06:09:17.038Z,5.60
2018-04-01T06:11:44.819Z,8.00
2018-04-01T06:14:12.623Z,6.90
2018-04-01T06:16:40.398Z,8.53
2018-04-01T06:19:08.217Z,7.83
2018-04-01T06:21:36.010Z,8.23
2018-04-01T06:24:03.874Z,8.00
2018-04-01T06:26:31.652Z,7.60
2018-04-01T06:28:59.513Z,7.77
2018-04-01T06:31:27.295Z,9.00
2018-04-01T06:33:55.149Z,10.20
2018-04-01T06:36:22.937Z,7.40
2018-04-01T06:38:50.764Z,9.10
2018-04-01T06:41:18.539Z,8.90
2018-04-01T06:43:46.308Z,9.17
2018-04-01T06:46:14.164Z,9.20
2018-04-01T06:48:42.036Z,10.00
2018-04-01T06:51:09.918Z,9.73
2018-04-01T06:53:37.695Z,9.63
2018-04-01T06:56:05.515Z,9.87
2018-04-01T06:58:33.273Z,9.83
2018-04-01T07:01:01.082Z,8.83
2018-04-01T07:03:28.863Z,9.47
2018-04-01T07:05:56.691Z,10.30
2018-04-01T07:08:24.475Z,10.47
2018-04-01T07:10:52.325Z,10.97
2018-04-01T07:13:20.191Z,10.17
2018-04-01T07:15:48.052Z,9.80
2018-04-01T07:18:15.827Z,10.47
2018-04-01T07:20:43.675Z,9.40
2018-04-01T07:23:11.474Z,9.40
2018-04-01T07:25:39.318Z,9.70
2018-04-01T07:28:07.184Z,9.23
2018-04-01T07:30:35.034Z,9.17
2018-04-01T07:33:02.903Z,8.90
2018-04-01T07:35:30.716Z,6.00
2018-04-01T07:37:58.551Z,8.17
2018-04-01T07:40:26.319Z,5.90
2018-04-01T07:42:54.115Z,6.80
2018-04-01T07:45:21.939Z,5.60
2018-04-01T07:47:49.742Z,6.60
2018-04-01T07:50:17.510Z,6.77
2018-04-01T07:52:45.675Z,6.37
2018-04-01T07:55:13.440Z,4.60
2018-04-01T07:57:41.274Z,5.57
2018-04-01T08:00:09.140Z,4.70
2018-04-01T08:02:36.940Z,4.37
2018-04-01T08:05:04.767Z,4.63
2018-04-01T08:07:32.591Z,4.17
2018-04-01T08:10:00.387Z,3.70
2018-04-01T08:12:28.255Z,3.83
2018-04-01T08:14:56.046Z,3.40
2018-04-01T08:17:23.830Z,3.63
2018-04-01T08:19:51.649Z,3.50
2018-04-01T08:22:19.420Z,3.30
2018-04-01T08:24:47.223Z,3.10
2018-04-01T08:27:15.007Z,3.33
2018-04-01T08:29:42.802Z,4.00
2018-04-01T08:32:10.600Z,3.20
2018-04-01T08:34:38.387Z,3.10
2018-04-01T08:37:06.204Z,2.47
2018-04-01T08:39:33.998Z,3.17
2018-04-01T08:42:01.775Z,2.13
2018-04-01T08:44:29.603Z,2.40
2018-04-01T08:46:57.372Z,2.73
2018-04-01T08:49:26.167Z,2.60
2018-04-01T08:51:53.943Z,2.23
2018-04-01T08:54:21.775Z,2.23
2018-04-01T08:56:49.666Z,2.07
2018-04-01T08:59:17.464Z,2.33
2018-04-01T09:01:45.274Z,2.40
2018-04-01T09:04:13.100Z,2.40
2018-04-01T09:06:41.266Z,2.70
2018-04-01T09:09:09.040Z,2.40
2018-04-01T09:11:36.821Z,2.27
2018-04-01T09:14:04.598Z,8.30
2018-04-01T09:16:32.399Z,2.40
2018-04-01T09:19:00.258Z,1.90
2018-04-01T09:21:28.063Z,1.97
2018-04-01T09:23:55.862Z,1.73
2018-04-01T09:26:23.650Z,2.50
2018-04-01T09:28:51.501Z,2.23
2018-04-01T09:31:19.294Z,2.20
2018-04-01T09:33:47.057Z,2.07
2018-04-01T09:36:14.857Z,2.30
2018-04-01T09:38:42.695Z,1.87
2018-04-01T09:41:10.471Z,1.80
2018-04-01T09:43:38.291Z,1.80
2018-04-01T09:46:06.106Z,1.40
2018-04-01T09:48:33.886Z,1.60
2018-04-01T09:51:01.679Z,1.83
2018-04-01T09:53:29.487Z,2.03
2018-04-01T09:55:57.254Z,1.97
2018-04-01T09:58:25.180Z,1.60
2018-04-01T10:00:59.044Z,2.30
2018-04-01T10:03:27.465Z,1.87
2018-04-01T10:05:55.761Z,1.80
2018-04-01T10:08:24.097Z,1.83
2018-04-01T10:10:52.435Z,2.10
2018-04-01T10:13:20.764Z,2.23
2018-04-01T10:15:49.066Z,2.20
2018-04-01T10:18:17.421Z,2.17
2018-04-01T10:20:45.819Z,1.97
2018-04-01T10:23:14.163Z,2.37
2018-04-01T10:25:42.505Z,2.20
2018-04-01T10:28:10.844Z,2.00
2018-04-01T10:30:39.829Z,2.10
2018-04-01T10:33:07.523Z,1.93
2018-04-01T10:35:35.860Z,2.07
2018-04-01T10:38:04.210Z,2.53
2018-04-01T10:40:32.558Z,2.70
2018-04-01T10:43:00.898Z,2.10
2018-04-01T10:45:29.242Z,2.10
2018-04-01T10:47:57.544Z,2.37
2018-04-01T10:50:25.945Z,1.43
2018-04-01T10:52:54.246Z,2.10
2018-04-01T10:55:22.079Z,2.50
2018-04-01T10:57:49.856Z,1.90
2018-04-01T11:00:17.703Z,2.17
2018-04-01T11:02:45.487Z,2.10
2018-04-01T11:05:13.312Z,2.20
2018-04-01T11:07:41.087Z,2.13
2018-04-01T11:10:08.854Z,2.30
2018-04-01T11:12:36.644Z,2.00
2018-04-01T11:15:04.498Z,1.90
2018-04-01T11:17:32.375Z,2.33
2018-04-01T11:20:00.242Z,1.90
2018-04-01T11:22:28.028Z,1.83
2018-04-01T11:24:55.799Z,2.00
2018-04-01T11:27:23.592Z,1.67
2018-04-01T11:29:51.364Z,2.10
2018-04-01T11:32:19.154Z,2.60
2018-04-01T11:34:46.982Z,2.13
2018-04-01T11:37:14.770Z,1.40
2018-04-01T11:39:42.552Z,2.33
2018-04-01T11:42:10.361Z,1.77
2018-04-01T11:44:38.181Z,2.00
2018-04-01T11:47:06.061Z,1.70
2018-04-01T11:49:33.855Z,1.90
2018-04-01T11:52:01.623Z,1.60
2018-04-01T11:54:29.443Z,1.80
2018-04-01T11:56:57.242Z,1.23
2018-04-01T11:59:25.076Z,1.90
2018-04-01T12:01:52.857Z,1.60
2018-04-01T12:04:20.701Z,1.67
2018-04-01T12:06:48.477Z,1.40
2018-04-01T12:09:16.333Z,1.53
2018-04-01T12:11:44.195Z,1.90
2018-04-01T12:14:12.079Z,1.10
2018-04-01T12:16:39.856Z,1.53
2018-04-01T12:19:07.704Z,1.70
2018-04-01T12:21:35.460Z,1.50
2018-04-01T12:24:03.226Z,1.77
2018-04-01T12:26:31.010Z,1.57
2018-04-01T12:28:58.788Z,1.40
2018-04-01T12:31:26.587Z,1.50
2018-04-01T12:33:54.379Z,2.20
2018-04-01T12:36:22.178Z,0.80
2018-04-01T12:38:50.057Z,0.80
2018-04-01T12:41:17.828Z,0.50
2018-04-01T12:43:46.668Z,0.70
2018-04-01T12:46:14.540Z,0.40
2018-04-01T12:48:42.322Z,0.43
2018-04-01T12:51:10.148Z,0.40
2018-04-01T12:53:37.914Z,0.60
2018-04-01T12:56:05.715Z,1.00
2018-04-01T12:58:33.554Z,0.63
2018-04-01T13:01:01.425Z,0.97
2018-04-01T13:03:29.198Z,1.40
2018-04-01T13:05:56.963Z,0.80
2018-04-01T13:08:24.770Z,0.67
2018-04-01T13:10:52.554Z,0.97
2018-04-01T13:13:20.464Z,0.83
2018-04-01T13:15:48.226Z,1.60
2018-04-01T13:18:16.071Z,1.23
2018-04-01T13:20:43.844Z,1.30
2018-04-01T13:23:11.707Z,0.60
2018-04-01T13:25:39.481Z,0.40
2018-04-01T13:28:07.267Z,0.40
2018-04-01T13:30:35.218Z,0.40
2018-04-01T13:33:03.076Z,0.70
2018-04-01T13:35:30.942Z,0.50
2018-04-01T13:37:58.851Z,1.53
2018-04-01T13:40:26.620Z,0.53
2018-04-01T13:42:55.294Z,0.30
2018-04-01T13:45:23.124Z,0.43
2018-04-01T13:47:50.889Z,0.43
2018-04-01T13:50:18.683Z,0.30
2018-04-01T13:52:46.523Z,0.40
2018-04-01T13:55:14.381Z,0.40
2018-04-01T13:57:42.151Z,0.50
2018-04-01T14:00:09.956Z,0.30
2018-04-01T14:02:37.733Z,0.43
2018-04-01T14:05:05.645Z,0.50
2018-04-01T14:07:33.405Z,0.43
2018-04-01T14:10:01.276Z,0.77
2018-04-01T14:12:29.043Z,0.63
2018-04-01T14:14:56.890Z,0.50
2018-04-01T14:17:24.663Z,0.60
2018-04-01T14:19:52.535Z,0.80
2018-04-01T14:22:20.307Z,0.77
2018-04-01T14:24:48.164Z,0.60
2018-04-01T14:27:15.954Z,0.50
2018-04-01T14:29:43.756Z,0.73
2018-04-01T14:32:11.581Z,0.60
2018-04-01T14:34:39.428Z,1.47
2018-04-01T14:37:07.280Z,1.47
2018-04-01T14:39:35.111Z,0.93
2018-04-01T14:42:02.907Z,1.10
2018-04-01T14:44:30.747Z,1.00
2018-04-01T14:46:58.540Z,1.10
2018-04-01T14:49:26.303Z,1.27
2018-04-01T14:51:54.103Z,1.13
2018-04-01T14:54:21.893Z,1.50
2018-04-01T14:56:49.650Z,1.13
2018-04-01T14:59:17.453Z,1.40
2018-04-01T15:01:45.247Z,1.67
2018-04-01T15:04:13.119Z,1.17
2018-04-01T15:06:40.886Z,1.43
2018-04-01T15:09:08.679Z,0.80
2018-04-01T15:11:36.510Z,1.57
2018-04-01T15:14:04.307Z,1.53
2018-04-01T15:16:32.081Z,1.80
2018-04-01T15:18:59.892Z,2.50
2018-04-01T15:21:28.635Z,1.83
2018-04-01T15:23:56.547Z,2.27
2018-04-01T15:26:24.407Z,2.10
2018-04-01T15:28:52.205Z,1.87
2018-04-01T15:31:20.010Z,1.90
2018-04-01T15:33:47.843Z,2.20
2018-04-01T15:36:15.602Z,2.13
2018-04-01T15:38:43.434Z,2.83
2018-04-01T15:41:11.244Z,2.50
2018-04-01T15:43:39.057Z,2.30
2018-04-01T15:46:06.862Z,2.63
2018-04-01T15:48:34.696Z,3.07
2018-04-01T15:51:02.560Z,2.20
2018-04-01T15:53:30.343Z,2.87
2018-04-01T15:55:58.123Z,2.10
2018-04-01T15:58:25.975Z,2.60
2018-04-01T16:00:53.756Z,2.53
2018-04-01T16:03:21.523Z,2.80
2018-04-01T16:05:49.350Z,2.43
2018-04-01T16:08:17.160Z,2.27
2018-04-01T16:10:44.948Z,3.00
2018-04-01T16:13:12.712Z,2.40
2018-04-01T16:15:40.515Z,2.43
2018-04-01T16:18:08.378Z,2.53
2018-04-01T16:20:36.347Z,2.23
2018-04-01T16:23:04.110Z,2.30
2018-04-01T16:25:31.890Z,1.77
2018-04-01T16:27:59.743Z,1.77
2018-04-01T16:30:27.493Z,1.60
2018-04-01T16:32:55.298Z,2.30
2018-04-01T16:35:23.066Z,2.00
2018-04-01T16:37:50.898Z,2.80
2018-04-01T16:40:18.659Z,2.33
2018-04-01T16:42:46.514Z,2.73
2018-04-01T16:45:14.300Z,3.30
2018-04-01T16:47:42.159Z,2.30
2018-04-01T16:50:10.015Z,2.80
2018-04-01T16:52:37.824Z,2.30
2018-04-01T16:55:05.654Z,2.60
2018-04-01T16:57:33.454Z,2.37
2018-04-01T17:00:01.295Z,2.37
2018-04-01T17:02:29.146Z,2.70
2018-04-01T17:04:56.920Z,2.37
2018-04-01T17:07:24.702Z,2.80
2018-04-01T17:09:52.551Z,3.07
2018-04-01T17:12:20.360Z,2.60
2018-04-01T17:14:48.184Z,2.40
2018-04-01T17:17:16.048Z,2.83
2018-04-01T17:19:43.812Z,2.67
2018-04-01T17:22:11.679Z,3.20
2018-04-01T17:24:39.547Z,3.20
2018-04-01T17:27:07.502Z,2.60
2018-04-01T17:29:35.294Z,2.63
2018-04-01T17:32:03.136Z,2.73
2018-04-01T17:34:31.010Z,3.20
2018-04-01T17:36:58.783Z,2.37
2018-04-01T17:39:26.589Z,2.53
2018-04-01T17:41:54.446Z,2.80
2018-04-01T17:44:22.247Z,2.43
2018-04-01T17:46:50.136Z,2.70
2018-04-01T17:49:17.927Z,3.27
2018-04-01T17:51:45.690Z,2.93
2018-04-01T17:54:13.486Z,3.40
2018-04-01T17:56:41.266Z,3.03
2018-04-01T17:59:09.146Z,3.10
2018-04-01T18:01:36.914Z,2.30
2018-04-01T18:04:04.783Z,3.40
2018-04-01T18:06:32.564Z,3.50
2018-04-01T18:09:00.429Z,2.93
2018-04-01T18:11:28.273Z,3.60
2018-04-01T18:13:56.450Z,3.73
2018-04-01T18:16:24.215Z,2.87
2018-04-01T18:18:51.983Z,2.80
2018-04-01T18:21:19.784Z,3.40
2018-04-01T18:23:47.709Z,3.40
2018-04-01T18:26:15.511Z,3.10
2018-04-01T18:28:43.276Z,4.20
2018-04-01T18:31:11.126Z,3.93
2018-04-01T18:33:38.895Z,2.90
2018-04-01T18:36:06.689Z,2.87
2018-04-01T18:38:34.495Z,3.70
2018-04-01T18:41:02.291Z,3.70
2018-04-01T18:43:30.128Z,3.50
2018-04-01T18:45:57.921Z,3.23
2018-04-01T18:48:25.694Z,2.70
2018-04-01T18:50:53.481Z,4.10
2018-04-01T18:53:21.327Z,3.40
2018-04-01T18:55:49.167Z,3.73
2018-04-01T18:58:16.922Z,3.90
2018-04-01T19:00:44.687Z,3.80
2018-04-01T19:03:12.474Z,3.30
2018-04-01T19:05:40.241Z,4.17
2018-04-01T19:08:08.066Z,4.40
2018-04-01T19:10:35.838Z,4.00
2018-04-01T19:13:03.626Z,3.57
2018-04-01T19:15:31.466Z,4.20
2018-04-01T19:17:59.800Z,3.90
2018-04-01T19:20:28.137Z,4.40
2018-04-01T19:22:56.513Z,4.17
2018-04-01T19:25:24.819Z,4.03
2018-04-01T19:27:53.154Z,4.37
2018-04-01T19:30:21.567Z,5.30
2018-04-01T19:32:49.899Z,4.50
2018-04-01T19:35:18.299Z,3.60
2018-04-01T19:37:46.682Z,4.43
2018-04-01T19:40:15.092Z,4.50
2018-04-01T19:42:43.434Z,4.23
2018-04-01T19:45:11.812Z,4.40
2018-04-01T19:47:40.124Z,3.90
2018-04-01T19:50:08.482Z,4.07
2018-04-01T19:52:36.826Z,4.07
2018-04-01T19:55:05.219Z,3.90
2018-04-01T19:57:33.517Z,4.20
2018-04-01T20:00:01.880Z,4.07
2018-04-01T20:02:30.277Z,4.80
2018-04-01T20:04:58.614Z,4.00
2018-04-01T20:07:26.917Z,4.60
2018-04-01T20:09:55.244Z,4.33
2018-04-01T20:12:23.559Z,4.70
2018-04-01T20:14:51.887Z,4.50
2018-04-01T20:17:20.219Z,4.10
2018-04-01T20:19:48.557Z,5.23
2018-04-01T20:22:16.879Z,4.60
2018-04-01T20:24:45.353Z,4.20
2018-04-01T20:27:13.666Z,4.37
2018-04-01T20:29:42.002Z,3.93
2018-04-01T20:32:10.385Z,4.40
2018-04-01T20:34:38.758Z,3.90
2018-04-01T20:37:07.127Z,4.67
2018-04-01T20:39:35.439Z,4.30
2018-04-01T20:42:03.763Z,3.90
2018-04-01T20:44:32.161Z,4.00
2018-04-01T20:47:00.504Z,4.33
2018-04-01T20:49:28.846Z,3.70
2018-04-01T20:51:57.307Z,3.90
2018-04-01T20:54:25.679Z,3.50
2018-04-01T20:56:54.008Z,3.47
2018-04-01T20:59:22.328Z,3.70
2018-04-01T21:01:51.657Z,4.37
2018-04-01T21:04:20.019Z,4.30
2018-04-01T21:06:48.448Z,5.47
2018-04-01T21:09:16.756Z,4.93
2018-04-01T21:11:45.102Z,3.33
2018-04-01T21:14:13.435Z,4.60
2018-04-01T21:16:41.805Z,4.27
2018-04-01T21:19:10.136Z,4.80
2018-04-01T21:21:38.449Z,4.50
2018-04-01T21:24:06.786Z,3.77
2018-04-01T21:26:35.091Z,5.57
2018-04-01T21:29:03.435Z,5.00
2018-04-01T21:31:31.743Z,4.57
2018-04-01T21:34:00.103Z,4.93
2018-04-01T21:36:28.410Z,4.40
2018-04-01T21:38:56.776Z,3.80
2018-04-01T21:41:25.043Z,4.90
2018-04-01T21:43:53.378Z,4.03
2018-04-01T21:46:21.703Z,4.53
2018-04-01T21:48:50.042Z,5.43
2018-04-01T21:51:18.361Z,5.23
2018-04-01T21:53:46.769Z,6.13
2018-04-01T21:56:15.152Z,4.77
2018-04-01T21:58:43.516Z,4.40
2018-04-01T22:01:11.835Z,4.90
2018-04-01T22:03:40.178Z,4.63
2018-04-01T22:06:08.463Z,4.90
2018-04-01T22:08:36.799Z,5.23
2018-04-01T22:11:05.111Z,5.93
2018-04-01T22:13:33.489Z,3.97
2018-04-01T22:16:01.820Z,5.50
2018-04-01T22:18:30.138Z,5.70
2018-04-01T22:20:58.518Z,6.90
2018-04-01T22:23:26.827Z,5.73
2018-04-01T22:25:55.154Z,5.30
2018-04-01T22:28:23.580Z,6.23
2018-04-01T22:30:51.919Z,5.90
2018-04-01T22:33:20.231Z,6.17
2018-04-01T22:35:48.591Z,5.10
2018-04-01T22:38:16.895Z,6.30
2018-04-01T22:40:45.250Z,7.10
2018-04-01T22:43:13.551Z,6.63
2018-04-01T22:45:41.879Z,5.60
2018-04-01T22:48:10.189Z,6.13
2018-04-01T22:50:38.931Z,6.60
2018-04-01T22:53:07.222Z,5.80
2018-04-01T22:55:35.554Z,6.80
2018-04-01T22:58:03.864Z,6.50
2018-04-01T23:00:32.268Z,6.70
2018-04-01T23:03:00.572Z,6.90
2018-04-01T23:05:28.908Z,5.83
2018-04-01T23:07:57.311Z,6.23
2018-04-01T23:10:25.704Z,7.00
2018-04-01T23:12:54.010Z,7.50
2018-04-01T23:15:22.362Z,7.03
2018-04-01T23:17:50.696Z,6.57
2018-04-01T23:20:19.003Z,6.83
2018-04-01T23:22:47.335Z,7.57
2018-04-01T23:25:15.648Z,7.50
2018-04-01T23:27:44.034Z,7.50
2018-04-01T23:30:12.334Z,7.40
2018-04-01T23:32:40.731Z,6.70
2018-04-01T23:35:09.034Z,6.40
2018-04-01T23:37:37.436Z,6.63
2018-04-01T23:40:05.735Z,6.50
2018-04-01T23:42:34.080Z,7.90
2018-04-01T23:45:02.468Z,7.23
2018-04-01T23:47:30.819Z,7.50
2018-04-01T23:49:59.109Z,6.30
2018-04-01T23:52:27.496Z,5.87
2018-04-01T23:54:55.884Z,7.47
2018-04-01T23:57:24.213Z,7.00
2018-04-01T23:59:52.517Z,6.23
